Time;durP1;ratioP1;P1;durP2;ratioP2;P2;SDS_P1;SDS_P2;PMS_P1;PMS_P2;Temp;Humidity;BMP_temperature;BMP_pressure;BME280_temperature;BME280_humidity;BME280_pressure;Samples;Min_cycle;Max_cycle;Signal;HPM_P1;HPM_P2
2023/06/05 00:00:28;;;;;;;8.20;5.22;;;;;;;;;;5057850;28;20048;-81
2023/06/05 00:02:54;;;;;;;7.05;5.00;;;;;;;;;;5067355;28;20053;-79
2023/06/05 00:05:21;;;;;;;8.18;5.63;;;;;;;;;;5057229;28;20051;-81
2023/06/05 00:07:48;;;;;;;7.55;5.40;;;;;;;;;;5056531;28;20128;-81
2023/06/05 00:10:16;;;;;;;8.13;5.22;;;;;;;;;;5056302;28;20598;-80
2023/06/05 00:12:42;;;;;;;8.35;5.55;;;;;;;;;;5055699;28;20127;-81
2023/06/05 00:15:10;;;;;;;7.95;5.10;;;;;;;;;;5055793;28;20074;-79
2023/06/05 00:17:37;;;;;;;9.63;6.10;;;;;;;;;;5054690;28;20041;-79
2023/06/05 00:20:05;;;;;;;9.25;5.90;;;;;;;;;;5054904;28;20049;-80
2023/06/05 00:22:33;;;;;;;7.85;5.57;;;;;;;;;;5055359;28;20492;-80
2023/06/05 00:25:00;;;;;;;8.15;6.03;;;;;;;;;;5054954;28;20041;-81
2023/06/05 00:27:28;;;;;;;8.68;5.80;;;;;;;;;;5055610;28;20045;-80
2023/06/05 00:29:55;;;;;;;9.63;6.28;;;;;;;;;;5054996;28;20135;-79
2023/06/05 00:32:22;;;;;;;8.70;6.15;;;;;;;;;;5055060;28;20662;-79
2023/06/05 00:34:49;;;;;;;8.48;6.30;;;;;;;;;;5057234;28;20118;-83
2023/06/05 00:37:16;;;;;;;8.25;6.18;;;;;;;;;;5057817;28;20076;-83
2023/06/05 00:39:43;;;;;;;8.32;6.22;;;;;;;;;;5057707;28;20486;-81
2023/06/05 00:42:10;;;;;;;9.45;6.78;;;;;;;;;;5055348;28;20045;-79
2023/06/05 00:44:38;;;;;;;11.10;7.07;;;;;;;;;;5059040;28;20047;-81
2023/06/05 00:47:05;;;;;;;11.05;7.70;;;;;;;;;;5066583;28;20088;-82
2023/06/05 00:49:32;;;;;;;10.05;7.18;;;;;;;;;;5057518;28;20045;-79
2023/06/05 00:52:00;;;;;;;9.23;7.22;;;;;;;;;;5056715;28;20048;-80
2023/06/05 00:54:27;;;;;;;9.52;7.15;;;;;;;;;;5058675;28;20131;-83
2023/06/05 00:56:54;;;;;;;9.50;7.47;;;;;;;;;;5064738;28;20076;-80
2023/06/05 00:59:21;;;;;;;8.82;7.65;;;;;;;;;;5056206;28;20068;-81
2023/06/05 01:01:50;;;;;;;10.25;7.78;;;;;;;;;;5060920;28;20045;-79
2023/06/05 01:04:17;;;;;;;10.43;8.43;;;;;;;;;;5055592;28;20095;-78
2023/06/05 01:06:44;;;;;;;9.30;7.80;;;;;;;;;;5060871;28;20049;-82
2023/06/05 01:09:13;;;;;;;10.93;8.30;;;;;;;;;;5057027;28;20049;-80
2023/06/05 01:11:44;;;;;;;9.32;7.70;;;;;;;;;;5055678;28;20077;-82
2023/06/05 01:14:22;;;;;;;10.52;8.18;;;;;;;;;;5056786;28;20048;-81
2023/06/05 01:16:53;;;;;;;11.27;8.35;;;;;;;;;;5054445;28;20045;-83
2023/06/05 01:19:20;;;;;;;9.88;8.02;;;;;;;;;;5055982;28;20059;-82
2023/06/05 01:21:47;;;;;;;11.88;8.43;;;;;;;;;;5055828;28;20365;-84
2023/06/05 01:24:15;;;;;;;10.23;8.40;;;;;;;;;;5056291;28;20147;-84
2023/06/05 01:26:53;;;;;;;10.10;8.13;;;;;;;;;;5055187;28;20045;-81
2023/06/05 01:29:25;;;;;;;11.10;9.15;;;;;;;;;;5053486;28;20106;-79
2023/06/05 01:31:59;;;;;;;9.63;8.13;;;;;;;;;;5053908;28;20045;-80
2023/06/05 01:34:27;;;;;;;11.18;8.45;;;;;;;;;;5053349;28;20049;-79
2023/06/05 01:36:56;;;;;;;11.07;8.82;;;;;;;;;;5053437;28;20053;-79
2023/06/05 01:39:25;;;;;;;10.18;8.40;;;;;;;;;;5053197;28;20080;-80
2023/06/05 01:41:54;;;;;;;10.70;8.35;;;;;;;;;;5053548;28;20072;-81
2023/06/05 01:44:22;;;;;;;11.25;8.70;;;;;;;;;;5053186;28;20120;-80
2023/06/05 01:46:50;;;;;;;10.13;8.02;;;;;;;;;;5056949;28;20488;-81
2023/06/05 01:49:17;;;;;;;11.10;8.23;;;;;;;;;;5057179;28;20519;-81
2023/06/05 01:51:44;;;;;;;11.57;8.73;;;;;;;;;;5057364;28;20414;-81
2023/06/05 01:54:11;;;;;;;10.57;8.35;;;;;;;;;;5055782;28;20080;-81
2023/06/05 01:56:39;;;;;;;12.45;8.55;;;;;;;;;;5055804;28;20084;-79
2023/06/05 01:59:07;;;;;;;9.93;8.20;;;;;;;;;;5055361;28;20522;-81
2023/06/05 02:01:34;;;;;;;10.60;8.35;;;;;;;;;;5055438;28;20352;-81
2023/06/05 02:04:04;;;;;;;10.50;8.55;;;;;;;;;;5055989;28;20049;-80
2023/06/05 02:06:41;;;;;;;11.32;9.07;;;;;;;;;;5054370;28;20041;-79
2023/06/05 02:09:10;;;;;;;9.52;8.10;;;;;;;;;;5059022;28;20033;-81
2023/06/05 02:11:37;;;;;;;10.30;9.02;;;;;;;;;;5095776;22;20049;-64
2023/06/05 02:14:06;;;;;;;11.48;8.43;;;;;;;;;;5031735;28;20411;-64
2023/06/05 02:16:33;;;;;;;11.05;8.30;;;;;;;;;;5032116;28;20210;-64
2023/06/05 02:19:03;;;;;;;9.65;8.18;;;;;;;;;;5031214;28;20054;-63
2023/06/05 02:21:32;;;;;;;13.93;8.50;;;;;;;;;;5031554;28;20049;-64
2023/06/05 02:23:59;;;;;;;11.32;8.75;;;;;;;;;;5031640;28;20115;-64
2023/06/05 02:26:26;;;;;;;9.55;7.85;;;;;;;;;;5031735;28;20119;-64
2023/06/05 02:28:54;;;;;;;11.82;8.52;;;;;;;;;;5031529;28;20099;-64
2023/06/05 02:31:24;;;;;;;11.70;8.13;;;;;;;;;;5031563;28;20049;-64
2023/06/05 02:33:52;;;;;;;10.05;8.15;;;;;;;;;;5031790;28;20100;-64
2023/06/05 02:36:19;;;;;;;10.48;8.13;;;;;;;;;;5032045;28;20474;-65
2023/06/05 02:38:49;;;;;;;12.90;8.68;;;;;;;;;;5031405;28;20053;-65
2023/06/05 02:41:16;;;;;;;10.02;8.15;;;;;;;;;;5031582;28;20125;-64
2023/06/05 02:43:43;;;;;;;10.40;8.60;;;;;;;;;;5031411;28;20398;-65
2023/06/05 02:46:10;;;;;;;10.48;8.30;;;;;;;;;;5031317;28;20503;-64
2023/06/05 02:48:38;;;;;;;10.60;8.18;;;;;;;;;;5031674;28;20403;-64
2023/06/05 02:51:06;;;;;;;9.80;8.60;;;;;;;;;;5031259;28;20057;-64
2023/06/05 02:53:33;;;;;;;10.32;8.60;;;;;;;;;;5031755;28;20130;-64
2023/06/05 02:56:01;;;;;;;9.65;8.20;;;;;;;;;;5031398;28;20132;-65
2023/06/05 02:58:29;;;;;;;10.95;8.23;;;;;;;;;;5031026;28;20050;-65
2023/06/05 03:01:01;;;;;;;10.73;8.50;;;;;;;;;;5031110;28;20061;-64
2023/06/05 03:03:29;;;;;;;9.82;8.57;;;;;;;;;;5031428;28;20056;-64
2023/06/05 03:06:01;;;;;;;12.43;8.80;;;;;;;;;;5031385;28;20051;-65
2023/06/05 03:08:28;;;;;;;10.68;8.45;;;;;;;;;;5031122;28;20050;-63
2023/06/05 03:10:55;;;;;;;12.02;9.05;;;;;;;;;;5030780;28;20045;-64
2023/06/05 03:13:22;;;;;;;10.73;8.32;;;;;;;;;;5031369;28;20049;-64
2023/06/05 03:15:53;;;;;;;11.52;8.30;;;;;;;;;;5031321;28;20103;-65
2023/06/05 03:18:20;;;;;;;11.57;8.43;;;;;;;;;;5032760;28;20060;-65
2023/06/05 03:20:47;;;;;;;10.65;8.57;;;;;;;;;;5034764;28;20509;-64
2023/06/05 03:23:16;;;;;;;12.57;8.77;;;;;;;;;;5034710;28;20049;-64
2023/06/05 03:25:43;;;;;;;10.77;8.43;;;;;;;;;;5034659;28;20061;-64
2023/06/05 03:28:10;;;;;;;11.48;8.73;;;;;;;;;;5034955;28;20438;-64
2023/06/05 03:30:37;;;;;;;11.05;8.85;;;;;;;;;;5034551;28;20046;-64
2023/06/05 03:33:04;;;;;;;11.57;9.15;;;;;;;;;;5034558;28;20049;-65
2023/06/05 03:35:32;;;;;;;11.40;9.00;;;;;;;;;;5034609;28;20056;-65
2023/06/05 03:37:59;;;;;;;10.57;8.38;;;;;;;;;;5034453;28;20144;-64
2023/06/05 03:40:27;;;;;;;10.90;9.38;;;;;;;;;;5034080;28;20045;-65
2023/06/05 03:42:54;;;;;;;12.05;8.63;;;;;;;;;;5034671;28;20057;-66
2023/06/05 03:45:22;;;;;;;12.05;9.23;;;;;;;;;;5034436;28;20041;-65
2023/06/05 03:47:49;;;;;;;11.70;9.18;;;;;;;;;;5034122;28;20045;-64
2023/06/05 03:50:16;;;;;;;11.30;8.98;;;;;;;;;;5033801;28;20055;-65
2023/06/05 03:52:43;;;;;;;11.20;8.90;;;;;;;;;;5034249;28;20539;-64
2023/06/05 03:55:10;;;;;;;10.98;9.30;;;;;;;;;;5034240;28;20565;-65
2023/06/05 03:57:38;;;;;;;10.93;8.55;;;;;;;;;;5034007;28;20057;-64
2023/06/05 04:00:09;;;;;;;11.20;9.13;;;;;;;;;;5033905;28;20052;-64
2023/06/05 04:02:36;;;;;;;12.38;9.60;;;;;;;;;;5030249;28;20530;-65
2023/06/05 04:05:03;;;;;;;12.63;9.05;;;;;;;;;;5014159;28;20057;-64
2023/06/05 04:07:30;;;;;;;10.60;8.57;;;;;;;;;;5013838;28;20060;-63
2023/06/05 04:09:57;;;;;;;10.52;8.32;;;;;;;;;;5013848;28;20461;-64
2023/06/05 04:12:24;;;;;;;12.77;9.40;;;;;;;;;;5014235;28;20053;-63
2023/06/05 04:14:52;;;;;;;11.93;9.70;;;;;;;;;;5014284;28;20046;-64
2023/06/05 04:17:19;;;;;;;10.68;8.98;;;;;;;;;;5014150;28;20491;-65
2023/06/05 04:19:46;;;;;;;11.07;8.90;;;;;;;;;;5013369;28;20136;-64
2023/06/05 04:22:12;;;;;;;12.40;9.52;;;;;;;;;;5013679;28;20050;-64
2023/06/05 04:24:40;;;;;;;13.27;8.63;;;;;;;;;;5013963;28;20057;-64
2023/06/05 04:27:08;;;;;;;13.02;8.57;;;;;;;;;;5014286;28;20046;-64
2023/06/05 04:29:35;;;;;;;11.73;9.52;;;;;;;;;;5013087;28;20058;-64
2023/06/05 04:32:03;;;;;;;11.93;9.52;;;;;;;;;;5013711;28;20085;-64
2023/06/05 04:34:31;;;;;;;12.38;10.10;;;;;;;;;;5013929;28;20045;-64
2023/06/05 04:36:57;;;;;;;10.98;9.32;;;;;;;;;;5013643;28;20046;-64
2023/06/05 04:39:24;;;;;;;10.57;8.90;;;;;;;;;;5013524;28;20418;-65
2023/06/05 04:41:51;;;;;;;11.02;9.50;;;;;;;;;;5013521;28;20107;-65
2023/06/05 04:44:18;;;;;;;13.57;10.50;;;;;;;;;;5014496;28;20458;-64
2023/06/05 04:46:45;;;;;;;10.48;9.20;;;;;;;;;;5013606;28;20085;-63
2023/06/05 04:49:14;;;;;;;12.98;9.88;;;;;;;;;;5013519;28;20532;-64
2023/06/05 04:51:42;;;;;;;11.35;9.50;;;;;;;;;;5013558;28;20046;-64
2023/06/05 04:54:09;;;;;;;12.55;10.15;;;;;;;;;;5013648;28;20049;-64
2023/06/05 04:56:39;;;;;;;11.05;8.93;;;;;;;;;;5014042;28;20105;-65
2023/06/05 04:59:05;;;;;;;12.50;8.67;;;;;;;;;;5013226;28;20128;-65
2023/06/05 05:01:33;;;;;;;10.43;9.27;;;;;;;;;;5013058;28;20670;-64
2023/06/05 05:03:59;;;;;;;13.52;9.80;;;;;;;;;;5028255;28;20073;-64
2023/06/05 05:06:27;;;;;;;10.05;8.73;;;;;;;;;;5032783;28;20107;-64
2023/06/05 05:08:54;;;;;;;10.88;9.20;;;;;;;;;;5032604;28;20049;-63
2023/06/05 05:11:21;;;;;;;14.40;10.07;;;;;;;;;;5032686;28;20081;-63
2023/06/05 05:13:48;;;;;;;11.07;9.85;;;;;;;;;;5032749;28;20049;-65
2023/06/05 05:16:15;;;;;;;12.70;8.77;;;;;;;;;;5032465;28;20049;-64
2023/06/05 05:18:44;;;;;;;11.80;9.85;;;;;;;;;;5032779;28;20057;-65
2023/06/05 05:21:11;;;;;;;12.88;10.25;;;;;;;;;;5032772;28;20437;-65
2023/06/05 05:23:39;;;;;;;14.35;10.18;;;;;;;;;;5032662;28;20042;-65
2023/06/05 05:26:08;;;;;;;13.70;9.48;;;;;;;;;;5032593;28;20462;-65
2023/06/05 05:28:35;;;;;;;12.35;10.20;;;;;;;;;;5032319;28;20045;-64
2023/06/05 05:31:02;;;;;;;14.05;10.48;;;;;;;;;;5032315;28;20053;-64
2023/06/05 05:33:29;;;;;;;15.73;11.23;;;;;;;;;;5032862;28;20144;-65
2023/06/05 05:35:56;;;;;;;13.18;10.48;;;;;;;;;;5032727;28;20049;-65
2023/06/05 05:38:23;;;;;;;12.82;10.23;;;;;;;;;;5032368;28;20103;-64
2023/06/05 05:40:51;;;;;;;11.07;9.88;;;;;;;;;;5032115;28;20050;-64
2023/06/05 05:43:18;;;;;;;13.82;10.13;;;;;;;;;;5032300;28;20050;-65
2023/06/05 05:45:45;;;;;;;11.43;10.23;;;;;;;;;;5032532;28;20045;-65
2023/06/05 05:48:12;;;;;;;11.23;9.98;;;;;;;;;;5032012;28;20045;-63
2023/06/05 05:50:39;;;;;;;13.07;10.02;;;;;;;;;;5032137;28;20041;-65
2023/06/05 05:53:06;;;;;;;12.40;10.00;;;;;;;;;;5032185;28;20104;-64
2023/06/05 05:55:33;;;;;;;11.63;8.95;;;;;;;;;;5032024;28;20049;-64
2023/06/05 05:58:01;;;;;;;12.10;9.90;;;;;;;;;;5032276;28;20555;-63
2023/06/05 06:00:28;;;;;;;13.00;10.52;;;;;;;;;;5032134;28;20387;-64
2023/06/05 06:02:55;;;;;;;12.40;9.82;;;;;;;;;;5025913;28;20049;-65
2023/06/05 06:05:22;;;;;;;13.65;10.15;;;;;;;;;;5017664;28;20061;-64
2023/06/05 06:07:49;;;;;;;12.15;9.60;;;;;;;;;;5017275;28;20048;-64
2023/06/05 06:10:16;;;;;;;11.07;9.40;;;;;;;;;;5021772;28;20060;-65
2023/06/05 06:12:44;;;;;;;12.07;10.57;;;;;;;;;;5032189;28;20056;-65
2023/06/05 06:15:12;;;;;;;11.35;9.30;;;;;;;;;;5032235;28;20057;-65
2023/06/05 06:17:39;;;;;;;13.38;9.73;;;;;;;;;;5031745;28;20049;-64
2023/06/05 06:20:11;;;;;;;13.63;10.27;;;;;;;;;;5031964;28;20136;-65
2023/06/05 06:22:38;;;;;;;11.57;9.95;;;;;;;;;;5032048;28;20111;-64
2023/06/05 06:25:05;;;;;;;13.57;10.13;;;;;;;;;;5032032;28;20045;-64
2023/06/05 06:27:32;;;;;;;17.63;10.07;;;;;;;;;;5031903;28;20049;-63
2023/06/05 06:29:59;;;;;;;12.93;10.90;;;;;;;;;;5031986;28;20049;-67
2023/06/05 06:32:27;;;;;;;14.18;10.77;;;;;;;;;;5031940;28;20065;-62
2023/06/05 06:34:55;;;;;;;14.38;10.57;;;;;;;;;;5031670;28;20056;-62
2023/06/05 06:37:22;;;;;;;13.45;10.27;;;;;;;;;;5031595;28;20136;-62
2023/06/05 06:39:50;;;;;;;13.80;10.60;;;;;;;;;;5028280;28;20045;-62
2023/06/05 06:42:17;;;;;;;14.18;10.52;;;;;;;;;;5022835;28;20088;-62
2023/06/05 06:44:43;;;;;;;12.80;10.85;;;;;;;;;;5012000;28;20289;-61
2023/06/05 06:47:10;;;;;;;12.98;10.02;;;;;;;;;;5025760;28;20099;-62
2023/06/05 06:49:39;;;;;;;12.27;9.90;;;;;;;;;;5031010;28;20099;-61
2023/06/05 06:52:06;;;;;;;12.15;9.60;;;;;;;;;;5031748;28;20504;-62
2023/06/05 06:54:33;;;;;;;12.02;10.02;;;;;;;;;;5035182;28;20045;-62
2023/06/05 06:57:00;;;;;;;13.20;10.65;;;;;;;;;;5035784;28;20049;-62
2023/06/05 06:59:27;;;;;;;12.32;9.93;;;;;;;;;;5019844;28;20088;-62
2023/06/05 07:02:11;;;;;;;12.90;10.07;;;;;;;;;;5015609;28;20069;-62
2023/06/05 07:04:41;;;;;;;13.80;10.38;;;;;;;;;;5016179;28;20054;-62
2023/06/05 07:07:09;;;;;;;11.82;10.25;;;;;;;;;;5015969;28;20046;-62
2023/06/05 07:09:36;;;;;;;16.55;10.85;;;;;;;;;;5015247;28;20048;-61
2023/06/05 07:12:05;;;;;;;12.85;10.57;;;;;;;;;;5015352;28;20116;-61
2023/06/05 07:14:32;;;;;;;12.93;9.55;;;;;;;;;;5016018;28;20124;-61
2023/06/05 07:17:00;;;;;;;15.57;9.73;;;;;;;;;;5015309;28;20042;-61
2023/06/05 07:19:27;;;;;;;13.45;10.20;;;;;;;;;;5015508;28;20054;-61
2023/06/05 07:21:57;;;;;;;12.10;9.65;;;;;;;;;;5015646;28;20137;-62
2023/06/05 07:24:25;;;;;;;13.25;9.65;;;;;;;;;;5015821;28;20132;-61
2023/06/05 07:26:52;;;;;;;13.48;9.80;;;;;;;;;;5016196;28;20057;-61
2023/06/05 07:29:20;;;;;;;13.85;10.27;;;;;;;;;;5034760;28;20065;-61
2023/06/05 07:31:49;;;;;;;11.43;9.27;;;;;;;;;;5034695;28;20495;-62
2023/06/05 07:34:16;;;;;;;10.60;9.07;;;;;;;;;;5034702;28;20408;-62
2023/06/05 07:36:45;;;;;;;12.00;9.90;;;;;;;;;;5035013;28;20128;-61
2023/06/05 07:39:13;;;;;;;12.85;9.43;;;;;;;;;;5034535;28;20560;-61
2023/06/05 07:41:40;;;;;;;11.50;8.95;;;;;;;;;;5034342;28;20503;-61
2023/06/05 07:44:09;;;;;;;11.90;9.95;;;;;;;;;;5017479;28;20141;-62
2023/06/05 07:46:36;;;;;;;12.23;10.13;;;;;;;;;;5014902;28;20053;-62
2023/06/05 07:49:04;;;;;;;12.25;9.15;;;;;;;;;;5028464;28;20057;-62
2023/06/05 07:51:33;;;;;;;11.02;8.95;;;;;;;;;;5054517;28;20084;-62
2023/06/05 07:54:02;;;;;;;11.75;9.23;;;;;;;;;;5039127;28;20049;-60
2023/06/05 07:56:31;;;;;;;13.88;9.40;;;;;;;;;;5039010;28;20466;-62
2023/06/05 07:58:58;;;;;;;11.30;8.75;;;;;;;;;;5023534;28;20080;-63
2023/06/05 08:01:25;;;;;;;9.88;8.15;;;;;;;;;;5019310;28;20042;-60
2023/06/05 08:03:52;;;;;;;13.82;8.38;;;;;;;;;;5026674;28;20050;-62
2023/06/05 08:06:19;;;;;;;10.07;8.60;;;;;;;;;;5032050;28;20127;-62
2023/06/05 08:08:46;;;;;;;9.45;8.45;;;;;;;;;;5031395;28;20085;-62
2023/06/05 08:11:13;;;;;;;10.52;9.02;;;;;;;;;;5031848;28;20480;-63
2023/06/05 08:13:41;;;;;;;11.55;8.70;;;;;;;;;;5024896;28;20054;-61
2023/06/05 08:16:08;;;;;;;11.45;9.00;;;;;;;;;;5020278;28;20050;-63
2023/06/05 08:18:35;;;;;;;10.40;8.15;;;;;;;;;;5012135;28;20053;-63
2023/06/05 08:21:03;;;;;;;11.48;8.32;;;;;;;;;;5024840;28;20073;-62
2023/06/05 08:23:29;;;;;;;10.60;8.27;;;;;;;;;;5030546;28;20530;-62
2023/06/05 08:25:56;;;;;;;11.40;8.43;;;;;;;;;;5030975;28;20137;-65
2023/06/05 08:28:23;;;;;;;13.20;10.02;;;;;;;;;;5031229;28;20050;-63
2023/06/05 08:30:52;;;;;;;11.80;9.23;;;;;;;;;;5031720;28;20049;-67
2023/06/05 08:33:19;;;;;;;10.70;8.45;;;;;;;;;;5031539;28;20425;-66
2023/06/05 08:35:46;;;;;;;10.85;8.65;;;;;;;;;;5031519;28;20060;-60
2023/06/05 08:38:13;;;;;;;12.05;9.45;;;;;;;;;;5031158;28;20061;-68
2023/06/05 08:40:40;;;;;;;10.27;8.80;;;;;;;;;;5031150;28;20057;-67
2023/06/05 08:43:07;;;;;;;10.80;8.52;;;;;;;;;;5031427;28;20041;-65
2023/06/05 08:45:34;;;;;;;10.15;8.40;;;;;;;;;;5030467;28;20091;-71
2023/06/05 08:48:02;;;;;;;11.55;8.68;;;;;;;;;;5028329;28;20046;-67
2023/06/05 08:50:31;;;;;;;12.60;9.23;;;;;;;;;;5030862;28;20058;-63
2023/06/05 08:53:00;;;;;;;10.43;8.75;;;;;;;;;;5029990;28;20056;-60
2023/06/05 08:55:27;;;;;;;11.25;8.90;;;;;;;;;;5030785;28;20076;-62
2023/06/05 08:57:54;;;;;;;9.25;8.00;;;;;;;;;;5031394;28;20126;-61
2023/06/05 09:00:22;;;;;;;10.13;7.70;;;;;;;;;;5018248;28;20131;-61
2023/06/05 09:02:49;;;;;;;11.90;9.23;;;;;;;;;;5027030;28;20057;-60
2023/06/05 09:05:18;;;;;;;10.70;7.78;;;;;;;;;;5017984;28;20116;-60
2023/06/05 09:07:45;;;;;;;9.77;7.70;;;;;;;;;;5028853;28;20049;-62
2023/06/05 09:10:26;;;;;;;11.23;7.85;;;;;;;;;;5030570;28;20041;-61
2023/06/05 09:12:57;;;;;;;11.65;7.80;;;;;;;;;;5024514;28;20045;-62
2023/06/05 09:15:25;;;;;;;12.50;8.07;;;;;;;;;;5019316;28;20092;-61
2023/06/05 09:18:10;;;;;;;10.38;7.72;;;;;;;;;;5030766;28;20414;-60
2023/06/05 09:20:39;;;;;;;10.82;7.88;;;;;;;;;;5028475;28;20045;-63
2023/06/05 09:23:24;;;;;;;11.02;8.07;;;;;;;;;;5030507;28;20053;-63
2023/06/05 09:25:51;;;;;;;11.85;8.07;;;;;;;;;;5030285;28;20049;-62
2023/06/05 09:28:18;;;;;;;10.80;8.50;;;;;;;;;;5030779;28;20107;-64
2023/06/05 09:30:56;;;;;;;10.05;8.70;;;;;;;;;;5029736;28;20046;-63
2023/06/05 09:33:23;;;;;;;11.70;7.60;;;;;;;;;;5030447;28;20049;-63
2023/06/05 09:36:04;;;;;;;9.73;7.60;;;;;;;;;;5030375;28;20061;-62
2023/06/05 09:38:32;;;;;;;9.15;7.53;;;;;;;;;;5029696;28;20387;-63
2023/06/05 09:41:06;;;;;;;10.25;7.55;;;;;;;;;;5029504;28;20461;-63
2023/06/05 09:43:34;;;;;;;10.13;7.82;;;;;;;;;;5030990;28;20077;-62
2023/06/05 09:46:07;;;;;;;9.77;7.95;;;;;;;;;;5031824;28;20049;-66
2023/06/05 09:48:37;;;;;;;9.05;7.82;;;;;;;;;;5029989;28;20041;-68
2023/06/05 09:51:11;;;;;;;;;;;;;;;;;;5031973;28;20053;-66
2023/06/05 09:53:42;;;;;;;9.90;8.23;;;;;;;;;;5024569;28;19944;-66
2023/06/05 09:56:12;;;;;;;10.55;7.97;;;;;;;;;;5031659;28;20049;-64
2023/06/05 09:58:41;;;;;;;8.02;7.00;;;;;;;;;;5031719;28;20092;-67
2023/06/05 10:01:09;;;;;;;8.25;7.30;;;;;;;;;;5030204;28;20489;-67
2023/06/05 10:03:37;;;;;;;9.95;8.20;;;;;;;;;;5032020;28;20056;-64
2023/06/05 10:06:06;;;;;;;10.07;8.65;;;;;;;;;;5031740;28;20446;-62
2023/06/05 10:08:35;;;;;;;8.68;7.78;;;;;;;;;;5027200;28;20054;-64
2023/06/05 10:11:02;;;;;;;9.35;7.32;;;;;;;;;;5028757;28;20057;-66
2023/06/05 10:13:29;;;;;;;9.43;7.00;;;;;;;;;;5029520;28;20057;-63
2023/06/05 10:15:57;;;;;;;9.77;7.45;;;;;;;;;;5031356;28;20075;-64
2023/06/05 10:18:24;;;;;;;10.00;8.10;;;;;;;;;;5031210;28;20776;-65
2023/06/05 10:20:50;;;;;;;11.23;8.60;;;;;;;;;;5031408;28;20053;-65
2023/06/05 10:23:20;;;;;;;11.07;8.27;;;;;;;;;;5031659;28;20045;-65
2023/06/05 10:25:49;;;;;;;9.00;7.93;;;;;;;;;;5031495;28;20568;-64
2023/06/05 10:28:30;;;;;;;10.68;8.00;;;;;;;;;;5033376;28;20054;-65
2023/06/05 10:31:28;;;;;;;9.55;8.30;;;;;;;;;;5035513;28;20517;-65
2023/06/05 10:34:27;;;;;;;8.98;7.43;;;;;;;;;;5019598;28;20057;-64
2023/06/05 10:37:21;;;;;;;9.57;8.02;;;;;;;;;;5035497;28;20053;-64
2023/06/05 10:39:50;;;;;;;10.55;8.10;;;;;;;;;;5026014;28;20103;-64
2023/06/05 10:42:25;;;;;;;10.00;7.40;;;;;;;;;;5035336;28;20045;-64
2023/06/05 10:44:53;;;;;;;10.25;7.30;;;;;;;;;;5035376;28;20107;-65
2023/06/05 10:47:51;;;;;;;12.60;10.07;;;;;;;;;;5035413;28;20046;-64
2023/06/05 10:50:31;;;;;;;8.32;7.43;;;;;;;;;;5035087;28;20050;-65
2023/06/05 10:52:58;;;;;;;9.70;7.70;;;;;;;;;;5035404;28;20461;-65
2023/06/05 10:55:27;;;;;;;10.52;8.02;;;;;;;;;;5035350;28;20490;-65
2023/06/05 10:58:13;;;;;;;8.93;7.22;;;;;;;;;;5035414;28;20053;-64
2023/06/05 11:01:20;;;;;;;11.88;7.05;;;;;;;;;;5034735;28;20057;-65
2023/06/05 11:03:57;;;;;;;11.88;7.38;;;;;;;;;;5021739;28;20041;-65
2023/06/05 11:06:24;;;;;;;10.10;7.63;;;;;;;;;;5015154;28;20097;-65
2023/06/05 11:09:08;;;;;;;9.20;6.85;;;;;;;;;;5015264;28;20699;-66
2023/06/05 11:11:57;;;;;;;8.80;7.13;;;;;;;;;;5015220;28;20438;-65
2023/06/05 11:14:25;;;;;;;8.80;7.18;;;;;;;;;;5015000;28;20134;-65
2023/06/05 11:16:52;;;;;;;8.75;7.55;;;;;;;;;;5014965;28;20416;-65
2023/06/05 11:19:38;;;;;;;9.20;7.50;;;;;;;;;;5014769;28;20419;-64
2023/06/05 11:22:07;;;;;;;8.88;7.53;;;;;;;;;;5014698;28;20088;-64
2023/06/05 11:24:35;;;;;;;12.10;7.93;;;;;;;;;;5014841;28;20050;-64
2023/06/05 11:27:03;;;;;;;9.10;7.38;;;;;;;;;;5014753;28;20139;-64
2023/06/05 11:29:31;;;;;;;11.55;7.30;;;;;;;;;;5014755;28;20527;-65
2023/06/05 11:31:58;;;;;;;8.52;6.57;;;;;;;;;;5014796;28;20046;-63
2023/06/05 11:34:27;;;;;;;8.30;6.75;;;;;;;;;;5014832;28;20404;-64
2023/06/05 11:36:54;;;;;;;8.35;6.78;;;;;;;;;;5015353;28;20060;-65
2023/06/05 11:39:21;;;;;;;7.45;6.40;;;;;;;;;;5013864;28;20107;-65
2023/06/05 11:41:50;;;;;;;8.80;6.88;;;;;;;;;;5014553;28;20050;-65
2023/06/05 11:44:30;;;;;;;8.85;6.90;;;;;;;;;;5014788;28;20046;-65
2023/06/05 11:46:58;;;;;;;8.80;6.82;;;;;;;;;;5014734;28;20418;-65
2023/06/05 11:49:26;;;;;;;10.73;7.63;;;;;;;;;;5014140;28;20469;-65
2023/06/05 11:51:53;;;;;;;9.55;6.40;;;;;;;;;;5014170;28;20053;-64
2023/06/05 11:54:33;;;;;;;9.02;6.40;;;;;;;;;;5014424;28;20057;-64
2023/06/05 11:57:08;;;;;;;11.75;6.90;;;;;;;;;;5014457;28;20076;-64
2023/06/05 11:59:35;;;;;;;8.43;6.55;;;;;;;;;;5014150;28;20068;-64
2023/06/05 12:02:04;;;;;;;7.72;6.60;;;;;;;;;;5014169;28;20058;-65
2023/06/05 12:04:32;;;;;;;10.43;6.90;;;;;;;;;;5033485;28;20424;-65
2023/06/05 12:06:59;;;;;;;8.68;6.40;;;;;;;;;;5033810;28;20049;-64
2023/06/05 12:09:26;;;;;;;7.88;6.55;;;;;;;;;;5033875;28;20109;-65
2023/06/05 12:11:53;;;;;;;7.82;6.80;;;;;;;;;;5033603;28;20430;-65
2023/06/05 12:14:31;;;;;;;7.75;6.15;;;;;;;;;;5033785;28;20560;-64
2023/06/05 12:16:58;;;;;;;8.90;6.07;;;;;;;;;;5033626;28;20076;-65
2023/06/05 12:19:26;;;;;;;8.65;6.63;;;;;;;;;;5033754;28;20115;-65
2023/06/05 12:22:02;;;;;;;6.60;5.60;;;;;;;;;;5033605;28;20041;-65
2023/06/05 12:24:29;;;;;;;8.27;6.05;;;;;;;;;;5033766;28;20041;-64
2023/06/05 12:26:58;;;;;;;7.32;6.15;;;;;;;;;;5033538;28;20045;-64
2023/06/05 12:29:28;;;;;;;10.00;6.23;;;;;;;;;;5033146;28;20053;-63
2023/06/05 12:31:56;;;;;;;8.98;6.60;;;;;;;;;;5033508;28;20045;-64
2023/06/05 12:34:44;;;;;;;7.72;6.38;;;;;;;;;;5033577;28;20062;-65
2023/06/05 12:37:12;;;;;;;9.38;6.38;;;;;;;;;;5033599;28;20107;-64
2023/06/05 12:39:39;;;;;;;8.27;5.20;;;;;;;;;;5033086;28;20049;-65
2023/06/05 12:42:07;;;;;;;6.78;5.53;;;;;;;;;;5033023;28;20430;-66
2023/06/05 12:44:33;;;;;;;7.35;5.93;;;;;;;;;;5033237;28;20052;-66
2023/06/05 12:47:00;;;;;;;7.85;6.15;;;;;;;;;;5033163;28;20046;-65
2023/06/05 12:49:27;;;;;;;8.38;6.40;;;;;;;;;;5032887;28;20476;-65
2023/06/05 12:51:56;;;;;;;8.95;6.05;;;;;;;;;;5032053;28;20499;-64
2023/06/05 12:54:23;;;;;;;6.70;5.53;;;;;;;;;;5032898;28;20144;-64
2023/06/05 12:56:50;;;;;;;7.88;5.32;;;;;;;;;;5032804;28;20088;-65
2023/06/05 12:59:17;;;;;;;11.50;6.22;;;;;;;;;;5032649;28;20045;-65
2023/06/05 13:01:44;;;;;;;8.60;5.68;;;;;;;;;;5032645;28;20141;-65
2023/06/05 13:04:10;;;;;;;6.65;5.57;;;;;;;;;;5016597;28;20120;-65
2023/06/05 13:06:37;;;;;;;8.60;5.88;;;;;;;;;;5012980;28;20491;-65
2023/06/05 13:09:05;;;;;;;7.97;5.60;;;;;;;;;;5012615;28;20169;-65
2023/06/05 13:11:32;;;;;;;8.68;6.68;;;;;;;;;;5012546;28;20482;-64
2023/06/05 13:14:00;;;;;;;8.38;5.63;;;;;;;;;;5013055;28;20050;-65
2023/06/05 13:16:26;;;;;;;8.45;6.03;;;;;;;;;;5013299;28;20054;-64
2023/06/05 13:18:53;;;;;;;6.43;5.57;;;;;;;;;;5012951;28;20124;-64
2023/06/05 13:21:20;;;;;;;8.90;6.20;;;;;;;;;;5012788;28;20058;-65
2023/06/05 13:23:47;;;;;;;9.55;6.00;;;;;;;;;;5013049;28;20053;-65
2023/06/05 13:26:15;;;;;;;7.55;6.30;;;;;;;;;;5012785;28;20053;-64
2023/06/05 13:28:44;;;;;;;10.05;6.65;;;;;;;;;;5012447;28;20096;-64
2023/06/05 13:31:13;;;;;;;7.95;6.03;;;;;;;;;;5012608;28;20410;-65
2023/06/05 13:33:40;;;;;;;7.20;5.55;;;;;;;;;;5012966;28;20060;-64
2023/06/05 13:36:08;;;;;;;7.05;5.57;;;;;;;;;;5012713;28;20082;-64
2023/06/05 13:38:37;;;;;;;8.57;5.78;;;;;;;;;;5012268;28;20069;-65
2023/06/05 13:41:05;;;;;;;6.80;5.75;;;;;;;;;;5012976;28;20049;-65
2023/06/05 13:43:34;;;;;;;9.20;5.57;;;;;;;;;;5012363;28;20057;-65
2023/06/05 13:46:01;;;;;;;7.53;5.33;;;;;;;;;;5012704;28;20054;-65
2023/06/05 13:48:28;;;;;;;6.68;4.78;;;;;;;;;;5011958;28;20089;-64
2023/06/05 13:50:56;;;;;;;7.03;5.05;;;;;;;;;;5012170;28;20462;-65
2023/06/05 13:53:22;;;;;;;7.10;5.25;;;;;;;;;;5012517;28;20499;-65
2023/06/05 13:55:49;;;;;;;6.43;4.93;;;;;;;;;;5012296;28;20046;-65
2023/06/05 13:58:16;;;;;;;7.22;5.05;;;;;;;;;;5012140;28;20049;-65
2023/06/05 14:00:44;;;;;;;5.60;4.72;;;;;;;;;;5012014;28;20474;-65
2023/06/05 14:03:11;;;;;;;6.32;5.07;;;;;;;;;;5020160;28;20453;-65
2023/06/05 14:05:38;;;;;;;5.53;4.63;;;;;;;;;;5032017;28;20183;-65
2023/06/05 14:08:07;;;;;;;6.35;5.13;;;;;;;;;;5031637;28;20045;-65
2023/06/05 14:10:36;;;;;;;11.30;5.10;;;;;;;;;;5031506;28;20049;-64
2023/06/05 14:13:03;;;;;;;8.55;5.60;;;;;;;;;;5031692;28;20149;-65
2023/06/05 14:15:32;;;;;;;6.53;5.30;;;;;;;;;;5031657;28;20045;-65
2023/06/05 14:18:02;;;;;;;7.75;4.90;;;;;;;;;;5031825;28;20081;-63
2023/06/05 14:20:30;;;;;;;7.07;5.28;;;;;;;;;;5031714;28;20081;-65
2023/06/05 14:22:57;;;;;;;7.13;4.93;;;;;;;;;;5031745;28;20063;-65
2023/06/05 14:25:25;;;;;;;6.50;5.22;;;;;;;;;;5031662;28;20565;-64
2023/06/05 14:27:54;;;;;;;5.65;4.93;;;;;;;;;;5032035;28;20045;-64
2023/06/05 14:30:22;;;;;;;5.88;4.70;;;;;;;;;;5031379;28;20132;-65
2023/06/05 14:32:49;;;;;;;6.82;5.15;;;;;;;;;;5031528;28;20061;-64
2023/06/05 14:35:19;;;;;;;5.47;4.20;;;;;;;;;;5031593;28;20084;-64
2023/06/05 14:37:46;;;;;;;5.90;5.20;;;;;;;;;;5031951;28;20487;-65
2023/06/05 14:40:13;;;;;;;5.75;4.15;;;;;;;;;;5031501;28;20155;-64
2023/06/05 14:42:40;;;;;;;5.82;4.70;;;;;;;;;;5031431;28;20461;-64